7AR6 weather

RBC Airport
Jonesboro, Arkansas, United States

Public forecast

Using degrees Fahrenheit for public forecast. Weather courtesy of forecast.io.

METAR (pilot weather report)

Closest report is Jonesboro Municipal Airport, 7.9 nm (14.6 km) ENE. Retrieved 2019/06/16 07:53 UTC (1 hour ago):

KJBR 160753Z AUTO 21011KT 10SM FEW055 26/21 A2986 RMK AO2 SLP109 T02560211

TAF (pilot weather forecast)

Closest forecast is Jonesboro Municipal Airport, 7.9 nm (14.6 km) ENE. Retrieved 2019/06/16 06:22 UTC (3 hours ago):

TAF KJBR 160520Z 1606/1706 21011KT P6SM OVC250 FM161500 22013G21KT P6SM VCTS BKN035CB FM170200 21004KT P6SM OVC050